sensor_id;sensor_type;location;lat;lon;timestamp;P1;durP1;ratioP1;P2;durP2;ratioP2
51594;SDS011;37677;53.254;6.594;2023-04-08T00:02:10;8.00;;;6.93;;
51594;SDS011;37677;53.254;6.594;2023-04-08T00:04:36;10.10;;;7.68;;
51594;SDS011;37677;53.254;6.594;2023-04-08T00:07:02;8.90;;;7.90;;
51594;SDS011;37677;53.254;6.594;2023-04-08T00:09:28;10.90;;;8.75;;
51594;SDS011;37677;53.254;6.594;2023-04-08T00:11:54;9.95;;;8.82;;
51594;SDS011;37677;53.254;6.594;2023-04-08T00:14:21;11.23;;;8.68;;
51594;SDS011;37677;53.254;6.594;2023-04-08T00:16:47;10.43;;;8.55;;
51594;SDS011;37677;53.254;6.594;2023-04-08T00:19:12;11.00;;;9.07;;
51594;SDS011;37677;53.254;6.594;2023-04-08T00:21:38;9.98;;;8.63;;
51594;SDS011;37677;53.254;6.594;2023-04-08T00:24:04;12.63;;;9.95;;
51594;SDS011;37677;53.254;6.594;2023-04-08T00:26:31;13.27;;;10.40;;
51594;SDS011;37677;53.254;6.594;2023-04-08T00:28:57;13.40;;;10.43;;
51594;SDS011;37677;53.254;6.594;2023-04-08T00:31:22;12.30;;;10.93;;
51594;SDS011;37677;53.254;6.594;2023-04-08T00:33:48;11.63;;;10.45;;
51594;SDS011;37677;53.254;6.594;2023-04-08T00:36:14;13.77;;;11.15;;
51594;SDS011;37677;53.254;6.594;2023-04-08T00:38:40;12.38;;;10.18;;
51594;SDS011;37677;53.254;6.594;2023-04-08T00:41:06;13.00;;;10.45;;
51594;SDS011;37677;53.254;6.594;2023-04-08T00:43:31;12.80;;;9.20;;
51594;SDS011;37677;53.254;6.594;2023-04-08T00:45:57;11.77;;;10.13;;
51594;SDS011;37677;53.254;6.594;2023-04-08T00:48:22;11.90;;;10.65;;
51594;SDS011;37677;53.254;6.594;2023-04-08T00:50:48;13.40;;;10.75;;
51594;SDS011;37677;53.254;6.594;2023-04-08T00:53:14;15.20;;;10.50;;
51594;SDS011;37677;53.254;6.594;2023-04-08T00:55:43;12.18;;;10.60;;
51594;SDS011;37677;53.254;6.594;2023-04-08T00:58:09;14.50;;;11.73;;
51594;SDS011;37677;53.254;6.594;2023-04-08T01:00:35;13.95;;;11.98;;
51594;SDS011;37677;53.254;6.594;2023-04-08T01:03:13;12.93;;;11.55;;
51594;SDS011;37677;53.254;6.594;2023-04-08T01:05:46;15.20;;;13.20;;
51594;SDS011;37677;53.254;6.594;2023-04-08T01:08:34;12.73;;;11.48;;
51594;SDS011;37677;53.254;6.594;2023-04-08T01:11:02;15.30;;;12.68;;
51594;SDS011;37677;53.254;6.594;2023-04-08T01:13:30;13.70;;;11.88;;
51594;SDS011;37677;53.254;6.594;2023-04-08T01:16:01;15.60;;;13.23;;
51594;SDS011;37677;53.254;6.594;2023-04-08T01:18:27;14.15;;;12.70;;
51594;SDS011;37677;53.254;6.594;2023-04-08T01:20:54;14.43;;;12.93;;
51594;SDS011;37677;53.254;6.594;2023-04-08T01:25:48;16.88;;;13.55;;
51594;SDS011;37677;53.254;6.594;2023-04-08T01:28:15;14.45;;;12.95;;
51594;SDS011;37677;53.254;6.594;2023-04-08T01:30:43;14.55;;;13.02;;
51594;SDS011;37677;53.254;6.594;2023-04-08T01:33:10;16.05;;;14.35;;
51594;SDS011;37677;53.254;6.594;2023-04-08T01:35:37;17.95;;;14.23;;
51594;SDS011;37677;53.254;6.594;2023-04-08T01:38:07;15.20;;;13.57;;
51594;SDS011;37677;53.254;6.594;2023-04-08T01:40:34;17.25;;;14.35;;
51594;SDS011;37677;53.254;6.594;2023-04-08T01:43:01;16.35;;;14.60;;
51594;SDS011;37677;53.254;6.594;2023-04-08T01:45:29;16.02;;;14.35;;
51594;SDS011;37677;53.254;6.594;2023-04-08T01:47:55;16.10;;;14.50;;
51594;SDS011;37677;53.254;6.594;2023-04-08T01:50:22;17.77;;;14.70;;
51594;SDS011;37677;53.254;6.594;2023-04-08T01:52:49;15.75;;;14.15;;
51594;SDS011;37677;53.254;6.594;2023-04-08T01:55:17;16.70;;;15.00;;
51594;SDS011;37677;53.254;6.594;2023-04-08T01:57:46;19.92;;;15.38;;
51594;SDS011;37677;53.254;6.594;2023-04-08T02:00:15;18.10;;;16.20;;
51594;SDS011;37677;53.254;6.594;2023-04-08T02:02:44;19.23;;;16.30;;
51594;SDS011;37677;53.254;6.594;2023-04-08T02:05:11;19.25;;;17.35;;
51594;SDS011;37677;53.254;6.594;2023-04-08T02:07:37;19.80;;;17.40;;
51594;SDS011;37677;53.254;6.594;2023-04-08T02:10:03;23.98;;;18.27;;
51594;SDS011;37677;53.254;6.594;2023-04-08T02:12:29;20.45;;;16.98;;
51594;SDS011;37677;53.254;6.594;2023-04-08T02:14:57;19.75;;;17.30;;
51594;SDS011;37677;53.254;6.594;2023-04-08T02:17:38;21.33;;;17.55;;
51594;SDS011;37677;53.254;6.594;2023-04-08T02:22:52;20.90;;;18.90;;
51594;SDS011;37677;53.254;6.594;2023-04-08T02:25:26;21.48;;;19.15;;
51594;SDS011;37677;53.254;6.594;2023-04-08T02:27:54;22.83;;;18.60;;
51594;SDS011;37677;53.254;6.594;2023-04-08T02:30:20;25.15;;;21.25;;
51594;SDS011;37677;53.254;6.594;2023-04-08T02:32:48;22.60;;;20.10;;
51594;SDS011;37677;53.254;6.594;2023-04-08T02:35:14;22.80;;;20.48;;
51594;SDS011;37677;53.254;6.594;2023-04-08T02:37:41;25.00;;;21.08;;
51594;SDS011;37677;53.254;6.594;2023-04-08T02:40:23;23.27;;;20.73;;
51594;SDS011;37677;53.254;6.594;2023-04-08T02:42:49;22.35;;;19.95;;
51594;SDS011;37677;53.254;6.594;2023-04-08T02:45:15;23.27;;;20.83;;
51594;SDS011;37677;53.254;6.594;2023-04-08T02:47:41;21.33;;;19.13;;
51594;SDS011;37677;53.254;6.594;2023-04-08T02:50:07;24.42;;;21.08;;
51594;SDS011;37677;53.254;6.594;2023-04-08T02:52:33;22.73;;;20.40;;
51594;SDS011;37677;53.254;6.594;2023-04-08T02:54:59;22.98;;;20.55;;
51594;SDS011;37677;53.254;6.594;2023-04-08T02:57:25;23.20;;;20.90;;
51594;SDS011;37677;53.254;6.594;2023-04-08T02:59:50;23.15;;;20.80;;
51594;SDS011;37677;53.254;6.594;2023-04-08T03:02:16;25.33;;;22.63;;
51594;SDS011;37677;53.254;6.594;2023-04-08T03:04:41;23.45;;;21.05;;
51594;SDS011;37677;53.254;6.594;2023-04-08T03:07:07;24.23;;;21.63;;
51594;SDS011;37677;53.254;6.594;2023-04-08T03:09:33;24.17;;;21.70;;
51594;SDS011;37677;53.254;6.594;2023-04-08T03:11:58;26.13;;;23.02;;
51594;SDS011;37677;53.254;6.594;2023-04-08T03:14:24;25.50;;;22.80;;
51594;SDS011;37677;53.254;6.594;2023-04-08T03:16:50;27.48;;;23.55;;
51594;SDS011;37677;53.254;6.594;2023-04-08T03:19:15;25.40;;;21.80;;
51594;SDS011;37677;53.254;6.594;2023-04-08T03:21:41;28.83;;;22.60;;
51594;SDS011;37677;53.254;6.594;2023-04-08T03:24:06;27.77;;;23.88;;
51594;SDS011;37677;53.254;6.594;2023-04-08T03:26:32;25.38;;;22.77;;
51594;SDS011;37677;53.254;6.594;2023-04-08T03:28:58;25.17;;;22.70;;
51594;SDS011;37677;53.254;6.594;2023-04-08T03:31:24;26.05;;;23.48;;
51594;SDS011;37677;53.254;6.594;2023-04-08T03:33:50;25.40;;;22.83;;
51594;SDS011;37677;53.254;6.594;2023-04-08T03:36:15;26.17;;;23.48;;
51594;SDS011;37677;53.254;6.594;2023-04-08T03:38:41;25.75;;;23.13;;
51594;SDS011;37677;53.254;6.594;2023-04-08T03:41:08;27.27;;;24.48;;
51594;SDS011;37677;53.254;6.594;2023-04-08T03:43:33;28.60;;;25.60;;
51594;SDS011;37677;53.254;6.594;2023-04-08T03:45:59;28.20;;;25.05;;
51594;SDS011;37677;53.254;6.594;2023-04-08T03:48:25;29.75;;;26.45;;
51594;SDS011;37677;53.254;6.594;2023-04-08T03:50:50;31.98;;;25.45;;
51594;SDS011;37677;53.254;6.594;2023-04-08T03:53:16;31.73;;;24.40;;
51594;SDS011;37677;53.254;6.594;2023-04-08T03:55:41;30.27;;;25.58;;
51594;SDS011;37677;53.254;6.594;2023-04-08T03:58:07;28.83;;;25.83;;
51594;SDS011;37677;53.254;6.594;2023-04-08T04:00:34;31.23;;;25.52;;
51594;SDS011;37677;53.254;6.594;2023-04-08T04:02:59;35.17;;;28.20;;
51594;SDS011;37677;53.254;6.594;2023-04-08T04:05:25;31.08;;;27.80;;
51594;SDS011;37677;53.254;6.594;2023-04-08T04:07:51;31.65;;;28.10;;
51594;SDS011;37677;53.254;6.594;2023-04-08T04:10:17;32.65;;;27.48;;
51594;SDS011;37677;53.254;6.594;2023-04-08T04:12:43;32.95;;;29.33;;
51594;SDS011;37677;53.254;6.594;2023-04-08T04:15:09;32.13;;;27.60;;
51594;SDS011;37677;53.254;6.594;2023-04-08T04:17:35;31.40;;;28.00;;
51594;SDS011;37677;53.254;6.594;2023-04-08T04:20:02;29.38;;;26.27;;
51594;SDS011;37677;53.254;6.594;2023-04-08T04:22:30;31.27;;;27.90;;
51594;SDS011;37677;53.254;6.594;2023-04-08T04:24:56;30.55;;;27.25;;
51594;SDS011;37677;53.254;6.594;2023-04-08T04:27:21;31.02;;;25.90;;
51594;SDS011;37677;53.254;6.594;2023-04-08T04:29:47;31.08;;;27.75;;
51594;SDS011;37677;53.254;6.594;2023-04-08T04:32:13;32.80;;;28.85;;
51594;SDS011;37677;53.254;6.594;2023-04-08T04:34:38;31.52;;;28.13;;
51594;SDS011;37677;53.254;6.594;2023-04-08T04:37:04;29.30;;;26.40;;
51594;SDS011;37677;53.254;6.594;2023-04-08T04:39:30;32.40;;;28.23;;
51594;SDS011;37677;53.254;6.594;2023-04-08T04:41:56;32.28;;;28.27;;
51594;SDS011;37677;53.254;6.594;2023-04-08T04:44:22;30.65;;;27.15;;
51594;SDS011;37677;53.254;6.594;2023-04-08T04:46:48;29.85;;;26.80;;
51594;SDS011;37677;53.254;6.594;2023-04-08T04:49:13;31.00;;;27.63;;
51594;SDS011;37677;53.254;6.594;2023-04-08T04:51:39;31.45;;;28.05;;
51594;SDS011;37677;53.254;6.594;2023-04-08T04:54:05;29.67;;;26.65;;
51594;SDS011;37677;53.254;6.594;2023-04-08T04:56:30;28.90;;;26.00;;
51594;SDS011;37677;53.254;6.594;2023-04-08T04:58:56;32.13;;;28.38;;
51594;SDS011;37677;53.254;6.594;2023-04-08T05:01:22;32.67;;;29.27;;
51594;SDS011;37677;53.254;6.594;2023-04-08T05:03:47;31.60;;;28.27;;
51594;SDS011;37677;53.254;6.594;2023-04-08T05:06:13;33.55;;;29.95;;
51594;SDS011;37677;53.254;6.594;2023-04-08T05:08:39;34.72;;;30.67;;
51594;SDS011;37677;53.254;6.594;2023-04-08T05:11:08;30.90;;;27.65;;
51594;SDS011;37677;53.254;6.594;2023-04-08T05:13:34;34.30;;;30.63;;
51594;SDS011;37677;53.254;6.594;2023-04-08T05:16:00;33.35;;;29.95;;
51594;SDS011;37677;53.254;6.594;2023-04-08T05:18:25;38.08;;;34.00;;
51594;SDS011;37677;53.254;6.594;2023-04-08T05:20:51;35.40;;;31.75;;
51594;SDS011;37677;53.254;6.594;2023-04-08T05:23:17;38.22;;;33.35;;
51594;SDS011;37677;53.254;6.594;2023-04-08T05:25:43;34.63;;;30.90;;
51594;SDS011;37677;53.254;6.594;2023-04-08T05:28:08;37.47;;;31.15;;
51594;SDS011;37677;53.254;6.594;2023-04-08T05:30:34;32.95;;;29.45;;
51594;SDS011;37677;53.254;6.594;2023-04-08T05:33:00;33.80;;;30.23;;
51594;SDS011;37677;53.254;6.594;2023-04-08T05:35:26;33.15;;;29.58;;
51594;SDS011;37677;53.254;6.594;2023-04-08T05:37:52;33.08;;;29.48;;
51594;SDS011;37677;53.254;6.594;2023-04-08T05:40:18;36.22;;;32.15;;
51594;SDS011;37677;53.254;6.594;2023-04-08T05:42:44;37.03;;;31.58;;
51594;SDS011;37677;53.254;6.594;2023-04-08T05:45:10;34.97;;;31.30;;
51594;SDS011;37677;53.254;6.594;2023-04-08T05:47:36;34.58;;;30.88;;
51594;SDS011;37677;53.254;6.594;2023-04-08T05:50:01;34.63;;;30.90;;
51594;SDS011;37677;53.254;6.594;2023-04-08T05:52:27;33.33;;;29.92;;
51594;SDS011;37677;53.254;6.594;2023-04-08T05:54:53;34.45;;;30.98;;
51594;SDS011;37677;53.254;6.594;2023-04-08T05:57:18;34.53;;;30.95;;
51594;SDS011;37677;53.254;6.594;2023-04-08T05:59:44;35.40;;;31.58;;
51594;SDS011;37677;53.254;6.594;2023-04-08T06:02:10;35.45;;;31.95;;
51594;SDS011;37677;53.254;6.594;2023-04-08T06:04:35;33.63;;;30.23;;
51594;SDS011;37677;53.254;6.594;2023-04-08T06:07:01;34.25;;;30.75;;
51594;SDS011;37677;53.254;6.594;2023-04-08T06:09:28;32.80;;;29.38;;
51594;SDS011;37677;53.254;6.594;2023-04-08T06:11:54;33.67;;;29.73;;
51594;SDS011;37677;53.254;6.594;2023-04-08T06:14:21;33.70;;;30.15;;
51594;SDS011;37677;53.254;6.594;2023-04-08T06:16:47;31.08;;;27.73;;
51594;SDS011;37677;53.254;6.594;2023-04-08T06:19:12;31.80;;;28.30;;
51594;SDS011;37677;53.254;6.594;2023-04-08T06:21:38;31.25;;;28.08;;
51594;SDS011;37677;53.254;6.594;2023-04-08T06:24:04;31.60;;;28.35;;
51594;SDS011;37677;53.254;6.594;2023-04-08T06:26:29;32.05;;;28.65;;
51594;SDS011;37677;53.254;6.594;2023-04-08T06:28:55;31.58;;;28.25;;
51594;SDS011;37677;53.254;6.594;2023-04-08T06:31:21;31.42;;;27.17;;
51594;SDS011;37677;53.254;6.594;2023-04-08T06:33:46;29.00;;;25.23;;
51594;SDS011;37677;53.254;6.594;2023-04-08T06:36:12;27.77;;;25.02;;
51594;SDS011;37677;53.254;6.594;2023-04-08T06:38:38;28.63;;;25.75;;
51594;SDS011;37677;53.254;6.594;2023-04-08T06:41:04;27.23;;;24.58;;
51594;SDS011;37677;53.254;6.594;2023-04-08T06:43:31;24.00;;;21.70;;
51594;SDS011;37677;53.254;6.594;2023-04-08T06:45:57;24.10;;;21.70;;
51594;SDS011;37677;53.254;6.594;2023-04-08T06:48:23;21.35;;;19.45;;
51594;SDS011;37677;53.254;6.594;2023-04-08T06:50:56;20.58;;;18.77;;
51594;SDS011;37677;53.254;6.594;2023-04-08T06:53:23;18.77;;;17.00;;
51594;SDS011;37677;53.254;6.594;2023-04-08T06:55:49;17.08;;;15.38;;
51594;SDS011;37677;53.254;6.594;2023-04-08T06:58:15;16.85;;;15.07;;
51594;SDS011;37677;53.254;6.594;2023-04-08T07:00:41;15.50;;;13.90;;
51594;SDS011;37677;53.254;6.594;2023-04-08T07:03:06;14.80;;;13.30;;
51594;SDS011;37677;53.254;6.594;2023-04-08T07:05:34;14.50;;;13.10;;
51594;SDS011;37677;53.254;6.594;2023-04-08T07:08:00;14.90;;;13.48;;
51594;SDS011;37677;53.254;6.594;2023-04-08T07:10:26;15.23;;;13.73;;
51594;SDS011;37677;53.254;6.594;2023-04-08T07:12:52;15.25;;;13.75;;
51594;SDS011;37677;53.254;6.594;2023-04-08T07:15:18;15.50;;;14.00;;
51594;SDS011;37677;53.254;6.594;2023-04-08T07:17:44;14.70;;;13.40;;
51594;SDS011;37677;53.254;6.594;2023-04-08T07:20:11;15.52;;;14.02;;
51594;SDS011;37677;53.254;6.594;2023-04-08T07:22:37;15.38;;;13.88;;
51594;SDS011;37677;53.254;6.594;2023-04-08T07:25:04;15.88;;;14.38;;
51594;SDS011;37677;53.254;6.594;2023-04-08T07:27:32;16.23;;;14.63;;
51594;SDS011;37677;53.254;6.594;2023-04-08T07:30:01;17.60;;;16.00;;
51594;SDS011;37677;53.254;6.594;2023-04-08T07:32:27;17.80;;;15.90;;
51594;SDS011;37677;53.254;6.594;2023-04-08T07:34:52;17.92;;;16.13;;
51594;SDS011;37677;53.254;6.594;2023-04-08T07:37:18;16.17;;;14.68;;
51594;SDS011;37677;53.254;6.594;2023-04-08T07:39:44;18.08;;;16.27;;
51594;SDS011;37677;53.254;6.594;2023-04-08T07:42:09;15.55;;;14.13;;
51594;SDS011;37677;53.254;6.594;2023-04-08T07:44:36;16.38;;;14.98;;
51594;SDS011;37677;53.254;6.594;2023-04-08T07:47:02;15.73;;;14.15;;
51594;SDS011;37677;53.254;6.594;2023-04-08T07:49:28;17.63;;;15.95;;
51594;SDS011;37677;53.254;6.594;2023-04-08T07:51:53;17.63;;;15.82;;
51594;SDS011;37677;53.254;6.594;2023-04-08T07:54:19;19.63;;;17.60;;
51594;SDS011;37677;53.254;6.594;2023-04-08T07:56:45;18.17;;;16.42;;
51594;SDS011;37677;53.254;6.594;2023-04-08T07:59:11;17.30;;;15.65;;
51594;SDS011;37677;53.254;6.594;2023-04-08T08:01:36;17.95;;;16.25;;
51594;SDS011;37677;53.254;6.594;2023-04-08T08:04:02;18.38;;;16.58;;
51594;SDS011;37677;53.254;6.594;2023-04-08T08:06:28;17.48;;;15.88;;
51594;SDS011;37677;53.254;6.594;2023-04-08T08:08:56;17.98;;;16.20;;
51594;SDS011;37677;53.254;6.594;2023-04-08T08:11:22;17.90;;;16.10;;
51594;SDS011;37677;53.254;6.594;2023-04-08T08:13:48;16.77;;;15.07;;
51594;SDS011;37677;53.254;6.594;2023-04-08T08:16:14;17.35;;;15.75;;
51594;SDS011;37677;53.254;6.594;2023-04-08T08:18:40;16.83;;;15.18;;
51594;SDS011;37677;53.254;6.594;2023-04-08T08:21:06;17.45;;;15.75;;
51594;SDS011;37677;53.254;6.594;2023-04-08T08:23:32;17.88;;;16.05;;
51594;SDS011;37677;53.254;6.594;2023-04-08T08:26:01;21.25;;;17.80;;
51594;SDS011;37677;53.254;6.594;2023-04-08T08:28:28;19.05;;;17.17;;
51594;SDS011;37677;53.254;6.594;2023-04-08T08:30:54;19.88;;;17.23;;
51594;SDS011;37677;53.254;6.594;2023-04-08T08:33:20;18.15;;;16.35;;
51594;SDS011;37677;53.254;6.594;2023-04-08T08:35:46;18.60;;;16.58;;
51594;SDS011;37677;53.254;6.594;2023-04-08T08:38:11;20.73;;;18.10;;
51594;SDS011;37677;53.254;6.594;2023-04-08T08:40:38;20.10;;;17.98;;
51594;SDS011;37677;53.254;6.594;2023-04-08T08:43:04;18.85;;;16.88;;
51594;SDS011;37677;53.254;6.594;2023-04-08T08:45:30;18.73;;;16.45;;
51594;SDS011;37677;53.254;6.594;2023-04-08T08:47:57;18.85;;;15.48;;
51594;SDS011;37677;53.254;6.594;2023-04-08T08:50:23;16.70;;;15.00;;
51594;SDS011;37677;53.254;6.594;2023-04-08T08:52:51;17.02;;;15.23;;
51594;SDS011;37677;53.254;6.594;2023-04-08T08:55:20;15.48;;;13.88;;
51594;SDS011;37677;53.254;6.594;2023-04-08T08:57:49;15.65;;;14.07;;
51594;SDS011;37677;53.254;6.594;2023-04-08T09:00:15;15.13;;;13.73;;
51594;SDS011;37677;53.254;6.594;2023-04-08T09:02:41;14.15;;;12.65;;
51594;SDS011;37677;53.254;6.594;2023-04-08T09:05:08;14.18;;;12.77;;
51594;SDS011;37677;53.254;6.594;2023-04-08T09:07:37;14.65;;;13.15;;
51594;SDS011;37677;53.254;6.594;2023-04-08T09:10:06;13.65;;;12.27;;
51594;SDS011;37677;53.254;6.594;2023-04-08T09:12:32;14.73;;;13.13;;
51594;SDS011;37677;53.254;6.594;2023-04-08T09:15:04;14.27;;;12.85;;
51594;SDS011;37677;53.254;6.594;2023-04-08T09:17:35;14.73;;;13.23;;
51594;SDS011;37677;53.254;6.594;2023-04-08T09:20:03;14.52;;;13.00;;
51594;SDS011;37677;53.254;6.594;2023-04-08T09:22:30;17.40;;;15.38;;
51594;SDS011;37677;53.254;6.594;2023-04-08T09:24:56;20.35;;;17.52;;
51594;SDS011;37677;53.254;6.594;2023-04-08T09:27:33;19.67;;;17.58;;
51594;SDS011;37677;53.254;6.594;2023-04-08T09:30:13;20.55;;;18.10;;
51594;SDS011;37677;53.254;6.594;2023-04-08T09:35:18;19.77;;;17.65;;
51594;SDS011;37677;53.254;6.594;2023-04-08T09:37:44;17.85;;;15.95;;
51594;SDS011;37677;53.254;6.594;2023-04-08T09:40:11;16.83;;;15.13;;
51594;SDS011;37677;53.254;6.594;2023-04-08T09:42:39;15.13;;;13.57;;
51594;SDS011;37677;53.254;6.594;2023-04-08T09:45:05;15.82;;;14.20;;
51594;SDS011;37677;53.254;6.594;2023-04-08T09:47:34;18.35;;;15.05;;
51594;SDS011;37677;53.254;6.594;2023-04-08T09:50:08;15.82;;;14.13;;
51594;SDS011;37677;53.254;6.594;2023-04-08T09:52:47;16.65;;;14.93;;
51594;SDS011;37677;53.254;6.594;2023-04-08T09:55:21;16.90;;;15.10;;
51594;SDS011;37677;53.254;6.594;2023-04-08T09:57:57;20.88;;;15.63;;
51594;SDS011;37677;53.254;6.594;2023-04-08T10:00:31;18.38;;;16.38;;
51594;SDS011;37677;53.254;6.594;2023-04-08T10:05:53;18.50;;;16.65;;
51594;SDS011;37677;53.254;6.594;2023-04-08T10:08:21;17.42;;;15.57;;
51594;SDS011;37677;53.254;6.594;2023-04-08T10:10:48;19.38;;;17.38;;
51594;SDS011;37677;53.254;6.594;2023-04-08T10:13:14;18.55;;;16.63;;
51594;SDS011;37677;53.254;6.594;2023-04-08T10:15:40;21.35;;;17.15;;
51594;SDS011;37677;53.254;6.594;2023-04-08T10:23:01;19.65;;;16.40;;
51594;SDS011;37677;53.254;6.594;2023-04-08T10:25:32;19.77;;;17.35;;
51594;SDS011;37677;53.254;6.594;2023-04-08T10:27:59;20.30;;;17.25;;
51594;SDS011;37677;53.254;6.594;2023-04-08T10:32:53;21.80;;;19.55;;
51594;SDS011;37677;53.254;6.594;2023-04-08T10:35:29;21.17;;;18.23;;
51594;SDS011;37677;53.254;6.594;2023-04-08T10:38:05;23.23;;;19.27;;
51594;SDS011;37677;53.254;6.594;2023-04-08T10:40:35;25.20;;;20.48;;
51594;SDS011;37677;53.254;6.594;2023-04-08T10:43:03;22.80;;;20.48;;
51594;SDS011;37677;53.254;6.594;2023-04-08T10:45:29;22.52;;;20.15;;
51594;SDS011;37677;53.254;6.594;2023-04-08T10:47:55;29.98;;;23.35;;
51594;SDS011;37677;53.254;6.594;2023-04-08T10:50:21;27.40;;;22.55;;
51594;SDS011;37677;53.254;6.594;2023-04-08T10:52:49;33.13;;;25.10;;
51594;SDS011;37677;53.254;6.594;2023-04-08T10:55:21;30.48;;;24.42;;
51594;SDS011;37677;53.254;6.594;2023-04-08T10:57:48;33.80;;;25.17;;
51594;SDS011;37677;53.254;6.594;2023-04-08T11:01:01;24.98;;;17.58;;
51594;SDS011;37677;53.254;6.594;2023-04-08T11:03:10;25.08;;;19.17;;
51594;SDS011;37677;53.254;6.594;2023-04-08T11:05:36;33.75;;;24.75;;
51594;SDS011;37677;53.254;6.594;2023-04-08T11:08:03;24.83;;;20.50;;
51594;SDS011;37677;53.254;6.594;2023-04-08T11:10:30;31.20;;;23.27;;
51594;SDS011;37677;53.254;6.594;2023-04-08T11:13:00;30.55;;;23.88;;
51594;SDS011;37677;53.254;6.594;2023-04-08T11:15:28;28.83;;;22.88;;
51594;SDS011;37677;53.254;6.594;2023-04-08T11:17:54;31.05;;;22.00;;
51594;SDS011;37677;53.254;6.594;2023-04-08T11:20:20;26.08;;;19.23;;
51594;SDS011;37677;53.254;6.594;2023-04-08T11:22:46;25.15;;;19.10;;
51594;SDS011;37677;53.254;6.594;2023-04-08T11:25:12;22.58;;;18.85;;
51594;SDS011;37677;53.254;6.594;2023-04-08T11:27:38;24.55;;;20.77;;
51594;SDS011;37677;53.254;6.594;2023-04-08T11:30:05;27.63;;;21.50;;
51594;SDS011;37677;53.254;6.594;2023-04-08T11:32:33;27.23;;;22.45;;
51594;SDS011;37677;53.254;6.594;2023-04-08T11:35:01;26.65;;;21.40;;
51594;SDS011;37677;53.254;6.594;2023-04-08T11:37:36;19.55;;;17.55;;
51594;SDS011;37677;53.254;6.594;2023-04-08T11:40:06;20.48;;;18.27;;
51594;SDS011;37677;53.254;6.594;2023-04-08T11:42:33;24.70;;;21.00;;
51594;SDS011;37677;53.254;6.594;2023-04-08T11:44:58;28.90;;;22.40;;
51594;SDS011;37677;53.254;6.594;2023-04-08T11:47:31;27.15;;;20.88;;
51594;SDS011;37677;53.254;6.594;2023-04-08T11:49:57;28.10;;;22.92;;
51594;SDS011;37677;53.254;6.594;2023-04-08T11:52:39;26.05;;;22.92;;
51594;SDS011;37677;53.254;6.594;2023-04-08T11:55:09;31.50;;;22.33;;
51594;SDS011;37677;53.254;6.594;2023-04-08T11:57:36;26.88;;;23.13;;
51594;SDS011;37677;53.254;6.594;2023-04-08T12:00:04;31.83;;;23.42;;
51594;SDS011;37677;53.254;6.594;2023-04-08T12:02:31;25.23;;;22.52;;
51594;SDS011;37677;53.254;6.594;2023-04-08T12:04:56;26.80;;;23.90;;
51594;SDS011;37677;53.254;6.594;2023-04-08T12:07:22;18.40;;;16.25;;
51594;SDS011;37677;53.254;6.594;2023-04-08T12:09:48;17.70;;;14.70;;
51594;SDS011;37677;53.254;6.594;2023-04-08T12:12:13;20.10;;;14.63;;
51594;SDS011;37677;53.254;6.594;2023-04-08T12:14:40;20.98;;;15.85;;
51594;SDS011;37677;53.254;6.594;2023-04-08T12:17:06;20.55;;;17.17;;
51594;SDS011;37677;53.254;6.594;2023-04-08T12:19:31;18.90;;;17.00;;
51594;SDS011;37677;53.254;6.594;2023-04-08T12:21:57;18.38;;;16.48;;
51594;SDS011;37677;53.254;6.594;2023-04-08T12:24:23;20.10;;;16.75;;
51594;SDS011;37677;53.254;6.594;2023-04-08T12:26:48;19.52;;;16.35;;
51594;SDS011;37677;53.254;6.594;2023-04-08T12:29:14;17.85;;;15.23;;
51594;SDS011;37677;53.254;6.594;2023-04-08T12:31:40;16.70;;;15.07;;
51594;SDS011;37677;53.254;6.594;2023-04-08T12:34:06;17.17;;;14.60;;
51594;SDS011;37677;53.254;6.594;2023-04-08T12:36:32;15.93;;;13.95;;
51594;SDS011;37677;53.254;6.594;2023-04-08T12:38:57;14.52;;;13.10;;
51594;SDS011;37677;53.254;6.594;2023-04-08T12:41:23;15.15;;;13.55;;
51594;SDS011;37677;53.254;6.594;2023-04-08T12:43:48;13.18;;;11.80;;
51594;SDS011;37677;53.254;6.594;2023-04-08T12:46:14;13.38;;;11.75;;
51594;SDS011;37677;53.254;6.594;2023-04-08T12:48:40;13.63;;;10.98;;
51594;SDS011;37677;53.254;6.594;2023-04-08T12:51:09;12.60;;;11.32;;
51594;SDS011;37677;53.254;6.594;2023-04-08T12:53:34;17.13;;;10.93;;
51594;SDS011;37677;53.254;6.594;2023-04-08T12:56:00;12.43;;;10.45;;
51594;SDS011;37677;53.254;6.594;2023-04-08T12:58:26;12.43;;;11.13;;
51594;SDS011;37677;53.254;6.594;2023-04-08T13:00:52;13.00;;;10.20;;
51594;SDS011;37677;53.254;6.594;2023-04-08T13:03:18;14.75;;;10.57;;
51594;SDS011;37677;53.254;6.594;2023-04-08T13:05:43;13.50;;;11.80;;
51594;SDS011;37677;53.254;6.594;2023-04-08T13:08:09;12.05;;;10.75;;
51594;SDS011;37677;53.254;6.594;2023-04-08T13:10:38;13.35;;;11.90;;
51594;SDS011;37677;53.254;6.594;2023-04-08T13:13:05;14.18;;;12.05;;
51594;SDS011;37677;53.254;6.594;2023-04-08T13:15:31;17.02;;;10.65;;
51594;SDS011;37677;53.254;6.594;2023-04-08T13:17:57;15.38;;;13.27;;
51594;SDS011;37677;53.254;6.594;2023-04-08T13:20:22;13.63;;;11.13;;
51594;SDS011;37677;53.254;6.594;2023-04-08T13:22:50;15.80;;;12.35;;
51594;SDS011;37677;53.254;6.594;2023-04-08T13:25:16;14.55;;;13.05;;
51594;SDS011;37677;53.254;6.594;2023-04-08T13:27:42;15.07;;;12.60;;
51594;SDS011;37677;53.254;6.594;2023-04-08T13:30:08;15.90;;;13.18;;
51594;SDS011;37677;53.254;6.594;2023-04-08T13:32:34;13.82;;;12.52;;
51594;SDS011;37677;53.254;6.594;2023-04-08T13:35:00;14.48;;;13.02;;
51594;SDS011;37677;53.254;6.594;2023-04-08T13:37:26;16.45;;;13.73;;
51594;SDS011;37677;53.254;6.594;2023-04-08T13:39:52;14.93;;;13.38;;
51594;SDS011;37677;53.254;6.594;2023-04-08T13:42:18;15.60;;;14.10;;
51594;SDS011;37677;53.254;6.594;2023-04-08T13:44:44;19.17;;;14.48;;
51594;SDS011;37677;53.254;6.594;2023-04-08T13:47:10;15.40;;;13.80;;
51594;SDS011;37677;53.254;6.594;2023-04-08T13:49:36;15.20;;;13.75;;
51594;SDS011;37677;53.254;6.594;2023-04-08T13:52:02;15.13;;;13.63;;
51594;SDS011;37677;53.254;6.594;2023-04-08T13:54:28;16.67;;;14.88;;
51594;SDS011;37677;53.254;6.594;2023-04-08T13:56:54;16.23;;;14.73;;
51594;SDS011;37677;53.254;6.594;2023-04-08T13:59:19;21.25;;;14.77;;
51594;SDS011;37677;53.254;6.594;2023-04-08T14:01:45;16.15;;;14.65;;
51594;SDS011;37677;53.254;6.594;2023-04-08T14:04:11;15.93;;;14.35;;
51594;SDS011;37677;53.254;6.594;2023-04-08T14:06:37;16.20;;;13.80;;
51594;SDS011;37677;53.254;6.594;2023-04-08T14:09:02;19.92;;;15.65;;
51594;SDS011;37677;53.254;6.594;2023-04-08T14:11:28;16.25;;;14.55;;
51594;SDS011;37677;53.254;6.594;2023-04-08T14:13:54;17.08;;;15.38;;
51594;SDS011;37677;53.254;6.594;2023-04-08T14:16:19;14.88;;;13.45;;
51594;SDS011;37677;53.254;6.594;2023-04-08T14:18:45;14.02;;;12.63;;
51594;SDS011;37677;53.254;6.594;2023-04-08T14:21:11;17.52;;;15.82;;
51594;SDS011;37677;53.254;6.594;2023-04-08T14:23:38;17.38;;;15.68;;
51594;SDS011;37677;53.254;6.594;2023-04-08T14:26:04;18.75;;;16.33;;
51594;SDS011;37677;53.254;6.594;2023-04-08T14:28:30;17.02;;;15.40;;
51594;SDS011;37677;53.254;6.594;2023-04-08T14:30:56;18.48;;;16.58;;
51594;SDS011;37677;53.254;6.594;2023-04-08T14:33:22;17.35;;;15.75;;
51594;SDS011;37677;53.254;6.594;2023-04-08T14:35:47;17.42;;;15.70;;
51594;SDS011;37677;53.254;6.594;2023-04-08T14:38:13;18.02;;;16.23;;